sensor_id;sensor_type;location;lat;lon;timestamp;temperature;humidity
41668;DHT22;27356;50.920;5.350;2023-01-26T00:00:29;0.30;99.90
41668;DHT22;27356;50.920;5.350;2023-01-26T00:02:56;0.40;99.90
41668;DHT22;27356;50.920;5.350;2023-01-26T00:05:21;0.20;99.90
41668;DHT22;27356;50.920;5.350;2023-01-26T00:07:47;0.30;99.90
41668;DHT22;27356;50.920;5.350;2023-01-26T00:10:13;0.30;99.90
41668;DHT22;27356;50.920;5.350;2023-01-26T00:12:39;0.20;99.90
41668;DHT22;27356;50.920;5.350;2023-01-26T00:15:05;0.20;99.90
41668;DHT22;27356;50.920;5.350;2023-01-26T00:17:31;0.30;99.90
41668;DHT22;27356;50.920;5.350;2023-01-26T00:19:57;0.30;99.90
41668;DHT22;27356;50.920;5.350;2023-01-26T00:22:25;0.40;99.90
41668;DHT22;27356;50.920;5.350;2023-01-26T00:24:51;0.50;99.90
41668;DHT22;27356;50.920;5.350;2023-01-26T00:27:17;0.60;99.90
41668;DHT22;27356;50.920;5.350;2023-01-26T00:29:43;0.60;99.90
41668;DHT22;27356;50.920;5.350;2023-01-26T00:32:08;0.60;99.90
41668;DHT22;27356;50.920;5.350;2023-01-26T00:34:34;0.50;99.90
41668;DHT22;27356;50.920;5.350;2023-01-26T00:37:00;0.70;99.90
41668;DHT22;27356;50.920;5.350;2023-01-26T00:39:25;0.60;99.90
41668;DHT22;27356;50.920;5.350;2023-01-26T00:41:51;0.60;99.90
41668;DHT22;27356;50.920;5.350;2023-01-26T00:44:37;0.70;99.90
41668;DHT22;27356;50.920;5.350;2023-01-26T00:47:06;0.70;99.90
41668;DHT22;27356;50.920;5.350;2023-01-26T00:49:32;0.70;99.90
41668;DHT22;27356;50.920;5.350;2023-01-26T00:51:58;0.70;99.90
41668;DHT22;27356;50.920;5.350;2023-01-26T00:54:27;0.70;99.90
41668;DHT22;27356;50.920;5.350;2023-01-26T00:56:53;0.80;99.90
41668;DHT22;27356;50.920;5.350;2023-01-26T00:59:19;0.70;99.90
41668;DHT22;27356;50.920;5.350;2023-01-26T01:01:46;0.60;99.90
41668;DHT22;27356;50.920;5.350;2023-01-26T01:04:12;0.50;99.90
41668;DHT22;27356;50.920;5.350;2023-01-26T01:06:37;0.60;99.90
41668;DHT22;27356;50.920;5.350;2023-01-26T01:09:03;0.60;99.90
41668;DHT22;27356;50.920;5.350;2023-01-26T01:11:29;0.50;99.90
41668;DHT22;27356;50.920;5.350;2023-01-26T01:13:55;0.50;99.90
41668;DHT22;27356;50.920;5.350;2023-01-26T01:16:20;0.70;99.90
41668;DHT22;27356;50.920;5.350;2023-01-26T01:18:46;0.50;99.90
41668;DHT22;27356;50.920;5.350;2023-01-26T01:21:15;0.40;99.90
41668;DHT22;27356;50.920;5.350;2023-01-26T01:23:41;0.30;99.90
41668;DHT22;27356;50.920;5.350;2023-01-26T01:26:08;0.30;99.90
41668;DHT22;27356;50.920;5.350;2023-01-26T01:28:35;0.40;99.90
41668;DHT22;27356;50.920;5.350;2023-01-26T01:31:05;0.40;99.90
41668;DHT22;27356;50.920;5.350;2023-01-26T01:33:31;0.50;99.90
41668;DHT22;27356;50.920;5.350;2023-01-26T01:35:58;0.60;99.90
41668;DHT22;27356;50.920;5.350;2023-01-26T01:38:25;0.60;99.90
41668;DHT22;27356;50.920;5.350;2023-01-26T01:40:52;0.60;99.90
41668;DHT22;27356;50.920;5.350;2023-01-26T01:43:18;0.70;99.90
41668;DHT22;27356;50.920;5.350;2023-01-26T01:45:45;0.60;99.90
41668;DHT22;27356;50.920;5.350;2023-01-26T01:48:27;0.60;99.90
41668;DHT22;27356;50.920;5.350;2023-01-26T01:50:57;0.80;99.90
41668;DHT22;27356;50.920;5.350;2023-01-26T01:53:31;0.80;99.90
41668;DHT22;27356;50.920;5.350;2023-01-26T01:56:03;0.90;99.90
41668;DHT22;27356;50.920;5.350;2023-01-26T01:58:31;0.70;99.90
41668;DHT22;27356;50.920;5.350;2023-01-26T02:00:57;0.80;99.90
41668;DHT22;27356;50.920;5.350;2023-01-26T02:03:24;0.90;99.90
41668;DHT22;27356;50.920;5.350;2023-01-26T02:08:43;0.80;99.90
41668;DHT22;27356;50.920;5.350;2023-01-26T02:11:22;0.80;99.90
41668;DHT22;27356;50.920;5.350;2023-01-26T02:13:49;0.90;99.90
41668;DHT22;27356;50.920;5.350;2023-01-26T02:16:17;1.00;99.90
41668;DHT22;27356;50.920;5.350;2023-01-26T02:18:44;0.80;99.90
41668;DHT22;27356;50.920;5.350;2023-01-26T02:21:15;0.90;99.90
41668;DHT22;27356;50.920;5.350;2023-01-26T02:26:31;0.90;99.90
41668;DHT22;27356;50.920;5.350;2023-01-26T02:28:57;1.00;99.90
41668;DHT22;27356;50.920;5.350;2023-01-26T02:31:24;1.00;99.90
41668;DHT22;27356;50.920;5.350;2023-01-26T02:33:51;1.10;99.90
41668;DHT22;27356;50.920;5.350;2023-01-26T02:36:22;1.10;99.90
41668;DHT22;27356;50.920;5.350;2023-01-26T02:41:26;1.00;99.90
41668;DHT22;27356;50.920;5.350;2023-01-26T02:44:11;1.20;99.90
41668;DHT22;27356;50.920;5.350;2023-01-26T02:46:37;1.20;99.90
41668;DHT22;27356;50.920;5.350;2023-01-26T02:49:03;1.00;99.90
41668;DHT22;27356;50.920;5.350;2023-01-26T02:51:47;0.90;99.90
41668;DHT22;27356;50.920;5.350;2023-01-26T02:54:13;1.00;99.90
41668;DHT22;27356;50.920;5.350;2023-01-26T02:56:58;0.90;99.90
41668;DHT22;27356;50.920;5.350;2023-01-26T02:59:24;0.90;99.90
41668;DHT22;27356;50.920;5.350;2023-01-26T03:01:51;0.90;99.90
41668;DHT22;27356;50.920;5.350;2023-01-26T03:04:17;1.00;99.90
41668;DHT22;27356;50.920;5.350;2023-01-26T03:06:43;1.00;99.90
41668;DHT22;27356;50.920;5.350;2023-01-26T03:09:08;0.90;99.90
41668;DHT22;27356;50.920;5.350;2023-01-26T03:11:34;0.90;99.90
41668;DHT22;27356;50.920;5.350;2023-01-26T03:14:10;1.00;99.90
41668;DHT22;27356;50.920;5.350;2023-01-26T03:16:36;1.00;99.90
41668;DHT22;27356;50.920;5.350;2023-01-26T03:19:03;1.00;99.90
41668;DHT22;27356;50.920;5.350;2023-01-26T03:21:28;1.00;99.90
41668;DHT22;27356;50.920;5.350;2023-01-26T03:24:13;0.90;99.90
41668;DHT22;27356;50.920;5.350;2023-01-26T03:26:59;1.00;99.90
41668;DHT22;27356;50.920;5.350;2023-01-26T03:29:44;0.90;99.90
41668;DHT22;27356;50.920;5.350;2023-01-26T03:32:10;0.90;99.90
41668;DHT22;27356;50.920;5.350;2023-01-26T03:34:36;0.90;99.90
41668;DHT22;27356;50.920;5.350;2023-01-26T03:37:02;0.90;99.90
41668;DHT22;27356;50.920;5.350;2023-01-26T03:39:28;1.00;99.90
41668;DHT22;27356;50.920;5.350;2023-01-26T03:42:12;1.20;99.90
41668;DHT22;27356;50.920;5.350;2023-01-26T03:44:56;1.00;99.90
41668;DHT22;27356;50.920;5.350;2023-01-26T03:47:41;0.90;99.90
41668;DHT22;27356;50.920;5.350;2023-01-26T03:50:25;1.00;99.90
41668;DHT22;27356;50.920;5.350;2023-01-26T03:53:18;1.20;99.90
41668;DHT22;27356;50.920;5.350;2023-01-26T03:56:04;1.30;99.90
41668;DHT22;27356;50.920;5.350;2023-01-26T03:58:53;1.30;99.90
41668;DHT22;27356;50.920;5.350;2023-01-26T04:01:22;1.20;99.90
41668;DHT22;27356;50.920;5.350;2023-01-26T04:03:54;1.30;99.90
41668;DHT22;27356;50.920;5.350;2023-01-26T04:06:43;1.40;99.90
41668;DHT22;27356;50.920;5.350;2023-01-26T04:09:28;1.20;99.90
41668;DHT22;27356;50.920;5.350;2023-01-26T04:11:54;1.00;99.90
41668;DHT22;27356;50.920;5.350;2023-01-26T04:14:20;1.10;99.90
41668;DHT22;27356;50.920;5.350;2023-01-26T04:17:05;1.20;99.90
41668;DHT22;27356;50.920;5.350;2023-01-26T04:19:49;1.20;99.90
41668;DHT22;27356;50.920;5.350;2023-01-26T04:22:40;1.30;99.90
41668;DHT22;27356;50.920;5.350;2023-01-26T04:25:20;1.40;99.90
41668;DHT22;27356;50.920;5.350;2023-01-26T04:27:45;1.40;99.90
41668;DHT22;27356;50.920;5.350;2023-01-26T04:30:13;1.40;99.90
41668;DHT22;27356;50.920;5.350;2023-01-26T04:32:39;1.40;99.90
41668;DHT22;27356;50.920;5.350;2023-01-26T04:35:06;1.50;99.90
41668;DHT22;27356;50.920;5.350;2023-01-26T04:37:32;1.40;99.90
41668;DHT22;27356;50.920;5.350;2023-01-26T04:39:58;1.40;99.90
41668;DHT22;27356;50.920;5.350;2023-01-26T04:42:24;1.40;99.90
41668;DHT22;27356;50.920;5.350;2023-01-26T04:44:51;1.40;99.90
41668;DHT22;27356;50.920;5.350;2023-01-26T04:47:17;1.50;99.90
41668;DHT22;27356;50.920;5.350;2023-01-26T04:49:43;1.40;99.90
41668;DHT22;27356;50.920;5.350;2023-01-26T04:52:09;1.40;99.90
41668;DHT22;27356;50.920;5.350;2023-01-26T04:54:34;1.50;99.90
41668;DHT22;27356;50.920;5.350;2023-01-26T04:57:00;1.40;99.90
41668;DHT22;27356;50.920;5.350;2023-01-26T04:59:26;1.40;99.90
41668;DHT22;27356;50.920;5.350;2023-01-26T05:01:51;1.40;99.90
41668;DHT22;27356;50.920;5.350;2023-01-26T05:04:17;1.40;99.90
41668;DHT22;27356;50.920;5.350;2023-01-26T05:06:43;1.40;99.90
41668;DHT22;27356;50.920;5.350;2023-01-26T05:09:09;1.50;99.90
41668;DHT22;27356;50.920;5.350;2023-01-26T05:11:35;1.60;99.90
41668;DHT22;27356;50.920;5.350;2023-01-26T05:14:00;1.60;99.90
41668;DHT22;27356;50.920;5.350;2023-01-26T05:16:26;1.60;99.90
41668;DHT22;27356;50.920;5.350;2023-01-26T05:18:53;1.60;99.90
41668;DHT22;27356;50.920;5.350;2023-01-26T05:21:18;1.50;99.90
41668;DHT22;27356;50.920;5.350;2023-01-26T05:23:44;1.60;99.90
41668;DHT22;27356;50.920;5.350;2023-01-26T05:26:10;1.70;99.90
41668;DHT22;27356;50.920;5.350;2023-01-26T05:28:36;1.70;99.90
41668;DHT22;27356;50.920;5.350;2023-01-26T05:31:02;1.70;99.90
41668;DHT22;27356;50.920;5.350;2023-01-26T05:33:27;1.70;99.90
41668;DHT22;27356;50.920;5.350;2023-01-26T05:35:53;1.70;99.90
41668;DHT22;27356;50.920;5.350;2023-01-26T05:38:19;1.80;99.90
41668;DHT22;27356;50.920;5.350;2023-01-26T05:40:45;1.60;99.90
41668;DHT22;27356;50.920;5.350;2023-01-26T05:43:11;1.50;99.90
41668;DHT22;27356;50.920;5.350;2023-01-26T05:45:38;1.50;99.90
41668;DHT22;27356;50.920;5.350;2023-01-26T05:48:04;1.50;99.90
41668;DHT22;27356;50.920;5.350;2023-01-26T05:50:30;1.50;99.90
41668;DHT22;27356;50.920;5.350;2023-01-26T05:52:56;1.60;99.90
41668;DHT22;27356;50.920;5.350;2023-01-26T05:55:22;1.70;99.90
41668;DHT22;27356;50.920;5.350;2023-01-26T05:57:48;1.60;99.90
41668;DHT22;27356;50.920;5.350;2023-01-26T06:00:14;1.50;99.90
41668;DHT22;27356;50.920;5.350;2023-01-26T06:02:40;1.50;99.90
41668;DHT22;27356;50.920;5.350;2023-01-26T06:05:06;1.50;99.90
41668;DHT22;27356;50.920;5.350;2023-01-26T06:07:33;1.40;99.90
41668;DHT22;27356;50.920;5.350;2023-01-26T06:09:58;1.50;99.90
41668;DHT22;27356;50.920;5.350;2023-01-26T06:12:24;1.60;99.90
41668;DHT22;27356;50.920;5.350;2023-01-26T06:14:50;1.60;99.90
41668;DHT22;27356;50.920;5.350;2023-01-26T06:17:17;1.60;99.90
41668;DHT22;27356;50.920;5.350;2023-01-26T06:19:43;1.50;99.90
41668;DHT22;27356;50.920;5.350;2023-01-26T06:22:10;1.50;99.90
41668;DHT22;27356;50.920;5.350;2023-01-26T06:24:36;1.60;99.90
41668;DHT22;27356;50.920;5.350;2023-01-26T06:27:02;1.50;99.90
41668;DHT22;27356;50.920;5.350;2023-01-26T06:29:31;1.60;99.90
41668;DHT22;27356;50.920;5.350;2023-01-26T06:31:58;1.80;99.90
41668;DHT22;27356;50.920;5.350;2023-01-26T06:34:25;1.70;99.90
41668;DHT22;27356;50.920;5.350;2023-01-26T06:36:50;1.70;99.90
41668;DHT22;27356;50.920;5.350;2023-01-26T06:39:16;1.70;99.90
41668;DHT22;27356;50.920;5.350;2023-01-26T06:41:42;1.60;99.90
41668;DHT22;27356;50.920;5.350;2023-01-26T06:44:11;1.60;99.90
41668;DHT22;27356;50.920;5.350;2023-01-26T06:46:38;1.70;99.90
41668;DHT22;27356;50.920;5.350;2023-01-26T06:49:04;1.80;99.90
41668;DHT22;27356;50.920;5.350;2023-01-26T06:51:43;1.60;99.90
41668;DHT22;27356;50.920;5.350;2023-01-26T06:54:11;1.60;99.90
41668;DHT22;27356;50.920;5.350;2023-01-26T06:56:37;1.60;99.90
41668;DHT22;27356;50.920;5.350;2023-01-26T06:59:04;1.70;99.90
41668;DHT22;27356;50.920;5.350;2023-01-26T07:01:34;1.70;99.90
41668;DHT22;27356;50.920;5.350;2023-01-26T07:04:00;1.70;99.90
41668;DHT22;27356;50.920;5.350;2023-01-26T07:06:26;1.60;99.90
41668;DHT22;27356;50.920;5.350;2023-01-26T07:08:52;1.60;99.90
41668;DHT22;27356;50.920;5.350;2023-01-26T07:11:18;1.80;99.90
41668;DHT22;27356;50.920;5.350;2023-01-26T07:13:45;1.80;99.90
41668;DHT22;27356;50.920;5.350;2023-01-26T07:16:13;1.70;99.90
41668;DHT22;27356;50.920;5.350;2023-01-26T07:18:40;1.80;99.90
41668;DHT22;27356;50.920;5.350;2023-01-26T07:21:11;1.80;99.90
41668;DHT22;27356;50.920;5.350;2023-01-26T07:23:37;1.80;99.90
41668;DHT22;27356;50.920;5.350;2023-01-26T07:26:03;1.70;99.90
41668;DHT22;27356;50.920;5.350;2023-01-26T07:28:29;1.80;99.90
41668;DHT22;27356;50.920;5.350;2023-01-26T07:30:58;1.80;99.90
41668;DHT22;27356;50.920;5.350;2023-01-26T07:33:25;1.90;99.90
41668;DHT22;27356;50.920;5.350;2023-01-26T07:35:57;1.90;99.90
41668;DHT22;27356;50.920;5.350;2023-01-26T07:38:24;1.90;99.90
41668;DHT22;27356;50.920;5.350;2023-01-26T07:40:51;1.90;99.90
41668;DHT22;27356;50.920;5.350;2023-01-26T07:43:17;1.90;99.90
41668;DHT22;27356;50.920;5.350;2023-01-26T07:45:52;1.70;99.90
41668;DHT22;27356;50.920;5.350;2023-01-26T07:48:22;1.80;99.90
41668;DHT22;27356;50.920;5.350;2023-01-26T07:50:49;1.70;99.90
41668;DHT22;27356;50.920;5.350;2023-01-26T07:53:16;1.80;99.90
41668;DHT22;27356;50.920;5.350;2023-01-26T07:55:46;1.90;99.90
41668;DHT22;27356;50.920;5.350;2023-01-26T07:58:12;2.00;99.90
41668;DHT22;27356;50.920;5.350;2023-01-26T08:00:38;1.90;99.90
41668;DHT22;27356;50.920;5.350;2023-01-26T08:03:04;2.10;99.90
41668;DHT22;27356;50.920;5.350;2023-01-26T08:05:30;2.10;99.90
41668;DHT22;27356;50.920;5.350;2023-01-26T08:08:00;2.00;99.90
41668;DHT22;27356;50.920;5.350;2023-01-26T08:10:26;2.10;99.90
41668;DHT22;27356;50.920;5.350;2023-01-26T08:12:57;2.20;99.90
41668;DHT22;27356;50.920;5.350;2023-01-26T08:15:23;2.10;99.90
41668;DHT22;27356;50.920;5.350;2023-01-26T08:17:48;2.10;99.90
41668;DHT22;27356;50.920;5.350;2023-01-26T08:20:14;2.10;99.90
41668;DHT22;27356;50.920;5.350;2023-01-26T08:22:40;2.10;99.90
41668;DHT22;27356;50.920;5.350;2023-01-26T08:25:06;2.20;99.90
41668;DHT22;27356;50.920;5.350;2023-01-26T08:27:32;2.20;99.90
41668;DHT22;27356;50.920;5.350;2023-01-26T08:29:58;2.10;99.90
41668;DHT22;27356;50.920;5.350;2023-01-26T08:32:24;2.30;99.90
41668;DHT22;27356;50.920;5.350;2023-01-26T08:34:49;2.20;99.90
41668;DHT22;27356;50.920;5.350;2023-01-26T08:37:15;2.20;99.90
41668;DHT22;27356;50.920;5.350;2023-01-26T08:39:41;2.20;99.90
41668;DHT22;27356;50.920;5.350;2023-01-26T08:42:07;1.90;99.90
41668;DHT22;27356;50.920;5.350;2023-01-26T08:44:32;1.90;99.90
41668;DHT22;27356;50.920;5.350;2023-01-26T08:46:58;1.90;99.90
41668;DHT22;27356;50.920;5.350;2023-01-26T08:49:24;2.10;99.90
41668;DHT22;27356;50.920;5.350;2023-01-26T08:51:50;2.10;99.90
41668;DHT22;27356;50.920;5.350;2023-01-26T08:54:15;2.10;99.90
41668;DHT22;27356;50.920;5.350;2023-01-26T08:56:41;2.30;99.90
41668;DHT22;27356;50.920;5.350;2023-01-26T08:59:07;2.40;99.90
41668;DHT22;27356;50.920;5.350;2023-01-26T09:01:32;2.30;99.90
41668;DHT22;27356;50.920;5.350;2023-01-26T09:03:58;2.40;99.90
41668;DHT22;27356;50.920;5.350;2023-01-26T09:06:24;2.50;99.90
41668;DHT22;27356;50.920;5.350;2023-01-26T09:08:52;2.60;99.90
41668;DHT22;27356;50.920;5.350;2023-01-26T09:11:18;2.70;99.90
41668;DHT22;27356;50.920;5.350;2023-01-26T09:13:44;2.70;99.90
41668;DHT22;27356;50.920;5.350;2023-01-26T09:16:18;2.80;99.90
41668;DHT22;27356;50.920;5.350;2023-01-26T09:18:44;2.90;99.90
41668;DHT22;27356;50.920;5.350;2023-01-26T09:21:10;3.00;99.90
41668;DHT22;27356;50.920;5.350;2023-01-26T09:23:36;3.00;99.90
41668;DHT22;27356;50.920;5.350;2023-01-26T09:26:03;3.00;99.90
41668;DHT22;27356;50.920;5.350;2023-01-26T09:28:29;2.90;99.90
41668;DHT22;27356;50.920;5.350;2023-01-26T09:30:55;3.00;99.90
41668;DHT22;27356;50.920;5.350;2023-01-26T09:33:20;3.20;99.90
41668;DHT22;27356;50.920;5.350;2023-01-26T09:35:48;3.30;99.90
41668;DHT22;27356;50.920;5.350;2023-01-26T09:38:14;3.30;99.90
41668;DHT22;27356;50.920;5.350;2023-01-26T09:51:00;3.50;99.90
41668;DHT22;27356;50.920;5.350;2023-01-26T09:53:48;3.50;99.90
41668;DHT22;27356;50.920;5.350;2023-01-26T09:56:21;3.50;99.90
41668;DHT22;27356;50.920;5.350;2023-01-26T09:59:02;3.00;99.90
41668;DHT22;27356;50.920;5.350;2023-01-26T10:08:19;3.00;99.90
41668;DHT22;27356;50.920;5.350;2023-01-26T10:10:52;3.00;99.90
41668;DHT22;27356;50.920;5.350;2023-01-26T10:13:19;3.20;99.90
41668;DHT22;27356;50.920;5.350;2023-01-26T10:16:07;3.30;99.90
41668;DHT22;27356;50.920;5.350;2023-01-26T10:21:44;3.30;99.90
41668;DHT22;27356;50.920;5.350;2023-01-26T10:24:13;3.10;99.90
41668;DHT22;27356;50.920;5.350;2023-01-26T10:26:42;3.20;99.90
41668;DHT22;27356;50.920;5.350;2023-01-26T10:29:14;3.40;99.90
41668;DHT22;27356;50.920;5.350;2023-01-26T10:31:40;3.20;99.90
41668;DHT22;27356;50.920;5.350;2023-01-26T10:34:16;3.30;99.90
41668;DHT22;27356;50.920;5.350;2023-01-26T10:36:45;3.60;99.90
41668;DHT22;27356;50.920;5.350;2023-01-26T10:39:16;3.80;99.90
41668;DHT22;27356;50.920;5.350;2023-01-26T10:41:56;4.00;99.90
41668;DHT22;27356;50.920;5.350;2023-01-26T10:44:32;4.00;99.90
41668;DHT22;27356;50.920;5.350;2023-01-26T10:47:18;4.00;99.90
41668;DHT22;27356;50.920;5.350;2023-01-26T10:49:45;3.80;99.90
41668;DHT22;27356;50.920;5.350;2023-01-26T10:52:19;3.90;99.90
41668;DHT22;27356;50.920;5.350;2023-01-26T10:54:47;3.80;99.90
41668;DHT22;27356;50.920;5.350;2023-01-26T10:57:27;4.00;99.90
41668;DHT22;27356;50.920;5.350;2023-01-26T11:00:02;3.80;99.90
41668;DHT22;27356;50.920;5.350;2023-01-26T11:02:34;3.90;99.90
41668;DHT22;27356;50.920;5.350;2023-01-26T11:05:03;3.70;99.90
41668;DHT22;27356;50.920;5.350;2023-01-26T11:07:42;3.70;99.90
41668;DHT22;27356;50.920;5.350;2023-01-26T11:12:43;3.60;99.90
41668;DHT22;27356;50.920;5.350;2023-01-26T11:15:21;3.80;99.90
41668;DHT22;27356;50.920;5.350;2023-01-26T11:18:36;3.60;99.90
41668;DHT22;27356;50.920;5.350;2023-01-26T11:23:51;3.00;99.90
41668;DHT22;27356;50.920;5.350;2023-01-26T11:34:19;3.50;99.90
41668;DHT22;27356;50.920;5.350;2023-01-26T11:40:23;3.40;99.90
41668;DHT22;27356;50.920;5.350;2023-01-26T11:54:23;3.50;99.90
41668;DHT22;27356;50.920;5.350;2023-01-26T11:56:58;3.30;99.90
41668;DHT22;27356;50.920;5.350;2023-01-26T11:59:38;3.40;99.90
41668;DHT22;27356;50.920;5.350;2023-01-26T12:04:50;3.40;99.90
41668;DHT22;27356;50.920;5.350;2023-01-26T12:10:40;3.50;99.90
41668;DHT22;27356;50.920;5.350;2023-01-26T12:15:45;3.40;99.90
41668;DHT22;27356;50.920;5.350;2023-01-26T12:18:30;3.60;99.90
41668;DHT22;27356;50.920;5.350;2023-01-26T12:21:08;3.70;99.90
41668;DHT22;27356;50.920;5.350;2023-01-26T12:23:57;3.90;99.90
41668;DHT22;27356;50.920;5.350;2023-01-26T12:26:25;3.70;99.90
41668;DHT22;27356;50.920;5.350;2023-01-26T12:34:15;4.00;99.90
41668;DHT22;27356;50.920;5.350;2023-01-26T12:36:50;4.00;99.90
41668;DHT22;27356;50.920;5.350;2023-01-26T12:39:27;3.80;99.90
41668;DHT22;27356;50.920;5.350;2023-01-26T12:42:12;3.50;99.90
41668;DHT22;27356;50.920;5.350;2023-01-26T12:44:43;3.50;99.90
41668;DHT22;27356;50.920;5.350;2023-01-26T12:47:31;3.80;99.90
41668;DHT22;27356;50.920;5.350;2023-01-26T12:55:39;3.60;99.90
41668;DHT22;27356;50.920;5.350;2023-01-26T12:58:17;3.50;99.90
41668;DHT22;27356;50.920;5.350;2023-01-26T13:00:54;3.50;99.90
41668;DHT22;27356;50.920;5.350;2023-01-26T13:03:27;3.60;99.90
41668;DHT22;27356;50.920;5.350;2023-01-26T13:10:55;3.80;99.90
41668;DHT22;27356;50.920;5.350;2023-01-26T13:16:29;3.80;99.90
41668;DHT22;27356;50.920;5.350;2023-01-26T13:18:57;3.50;99.90
41668;DHT22;27356;50.920;5.350;2023-01-26T13:26:57;3.60;99.90
41668;DHT22;27356;50.920;5.350;2023-01-26T13:29:27;3.60;99.90
41668;DHT22;27356;50.920;5.350;2023-01-26T13:35:08;3.70;99.90
41668;DHT22;27356;50.920;5.350;2023-01-26T13:45:42;4.30;99.90
41668;DHT22;27356;50.920;5.350;2023-01-26T13:48:17;4.30;99.90
41668;DHT22;27356;50.920;5.350;2023-01-26T13:50:46;4.50;99.90
41668;DHT22;27356;50.920;5.350;2023-01-26T13:53:38;4.50;99.90
41668;DHT22;27356;50.920;5.350;2023-01-26T13:58:45;4.80;99.90
41668;DHT22;27356;50.920;5.350;2023-01-26T14:01:12;4.90;99.90
41668;DHT22;27356;50.920;5.350;2023-01-26T14:03:38;4.80;99.90
41668;DHT22;27356;50.920;5.350;2023-01-26T14:06:13;5.00;99.90
41668;DHT22;27356;50.920;5.350;2023-01-26T14:08:54;5.10;99.90
41668;DHT22;27356;50.920;5.350;2023-01-26T14:11:23;5.10;99.90
41668;DHT22;27356;50.920;5.350;2023-01-26T14:13:55;5.00;99.90
41668;DHT22;27356;50.920;5.350;2023-01-26T14:16:26;4.90;99.90
41668;DHT22;27356;50.920;5.350;2023-01-26T14:19:21;4.90;99.90
41668;DHT22;27356;50.920;5.350;2023-01-26T14:21:55;4.70;99.90
41668;DHT22;27356;50.920;5.350;2023-01-26T14:24:31;4.70;99.90
41668;DHT22;27356;50.920;5.350;2023-01-26T14:27:04;4.90;99.90
41668;DHT22;27356;50.920;5.350;2023-01-26T14:29:36;5.10;99.90
41668;DHT22;27356;50.920;5.350;2023-01-26T14:32:03;5.00;99.90
41668;DHT22;27356;50.920;5.350;2023-01-26T14:34:30;4.90;99.90
41668;DHT22;27356;50.920;5.350;2023-01-26T14:37:13;5.00;99.90
41668;DHT22;27356;50.920;5.350;2023-01-26T14:39:40;5.00;99.90
41668;DHT22;27356;50.920;5.350;2023-01-26T14:42:18;5.20;99.90
41668;DHT22;27356;50.920;5.350;2023-01-26T14:44:45;5.20;99.90
41668;DHT22;27356;50.920;5.350;2023-01-26T14:47:27;5.40;99.90
41668;DHT22;27356;50.920;5.350;2023-01-26T14:49:59;5.40;99.90
41668;DHT22;27356;50.920;5.350;2023-01-26T14:52:29;5.60;99.90
41668;DHT22;27356;50.920;5.350;2023-01-26T14:54:57;5.60;99.90
41668;DHT22;27356;50.920;5.350;2023-01-26T14:57:25;5.50;99.90
41668;DHT22;27356;50.920;5.350;2023-01-26T14:59:57;5.60;99.90
41668;DHT22;27356;50.920;5.350;2023-01-26T15:02:26;5.70;99.90
41668;DHT22;27356;50.920;5.350;2023-01-26T15:05:01;5.70;99.90
41668;DHT22;27356;50.920;5.350;2023-01-26T15:07:37;5.70;99.90
41668;DHT22;27356;50.920;5.350;2023-01-26T15:15:41;5.70;99.90
41668;DHT22;27356;50.920;5.350;2023-01-26T15:18:19;5.70;99.90
41668;DHT22;27356;50.920;5.350;2023-01-26T15:21:18;5.80;99.90
41668;DHT22;27356;50.920;5.350;2023-01-26T15:23:48;5.60;99.90
41668;DHT22;27356;50.920;5.350;2023-01-26T15:26:30;5.70;99.90
41668;DHT22;27356;50.920;5.350;2023-01-26T15:29:04;5.70;99.90
41668;DHT22;27356;50.920;5.350;2023-01-26T15:31:36;5.70;99.90
41668;DHT22;27356;50.920;5.350;2023-01-26T15:34:35;5.70;99.90
41668;DHT22;27356;50.920;5.350;2023-01-26T15:37:23;5.70;99.90
41668;DHT22;27356;50.920;5.350;2023-01-26T15:39:51;5.50;99.90
41668;DHT22;27356;50.920;5.350;2023-01-26T15:42:22;5.50;99.90
41668;DHT22;27356;50.920;5.350;2023-01-26T15:44:49;5.60;99.90
41668;DHT22;27356;50.920;5.350;2023-01-26T15:47:14;5.70;99.90
41668;DHT22;27356;50.920;5.350;2023-01-26T15:49:40;5.70;99.90
41668;DHT22;27356;50.920;5.350;2023-01-26T15:52:33;5.80;99.90
41668;DHT22;27356;50.920;5.350;2023-01-26T15:55:17;5.90;99.90
41668;DHT22;27356;50.920;5.350;2023-01-26T15:57:44;5.70;99.90
41668;DHT22;27356;50.920;5.350;2023-01-26T16:00:12;5.60;99.90
41668;DHT22;27356;50.920;5.350;2023-01-26T16:02:38;5.70;99.90
41668;DHT22;27356;50.920;5.350;2023-01-26T16:05:04;5.60;99.90
41668;DHT22;27356;50.920;5.350;2023-01-26T16:07:30;5.50;99.90
41668;DHT22;27356;50.920;5.350;2023-01-26T16:09:56;5.70;99.90
41668;DHT22;27356;50.920;5.350;2023-01-26T16:12:22;5.80;99.90
41668;DHT22;27356;50.920;5.350;2023-01-26T16:14:47;5.70;99.90
41668;DHT22;27356;50.920;5.350;2023-01-26T16:17:15;5.70;99.90
41668;DHT22;27356;50.920;5.350;2023-01-26T16:19:42;5.80;99.90
41668;DHT22;27356;50.920;5.350;2023-01-26T16:22:12;5.80;99.90
41668;DHT22;27356;50.920;5.350;2023-01-26T16:24:38;5.80;99.90
41668;DHT22;27356;50.920;5.350;2023-01-26T16:27:05;5.80;99.90
41668;DHT22;27356;50.920;5.350;2023-01-26T16:29:31;5.70;99.90
41668;DHT22;27356;50.920;5.350;2023-01-26T16:31:58;5.70;99.90
41668;DHT22;27356;50.920;5.350;2023-01-26T16:34:27;5.80;99.90
41668;DHT22;27356;50.920;5.350;2023-01-26T16:36:53;5.80;99.90
41668;DHT22;27356;50.920;5.350;2023-01-26T16:39:21;5.60;99.90
41668;DHT22;27356;50.920;5.350;2023-01-26T16:41:47;5.40;99.90
41668;DHT22;27356;50.920;5.350;2023-01-26T16:44:14;5.40;99.90
41668;DHT22;27356;50.920;5.350;2023-01-26T16:46:41;5.30;99.90
41668;DHT22;27356;50.920;5.350;2023-01-26T16:49:15;5.40;99.90
41668;DHT22;27356;50.920;5.350;2023-01-26T16:51:41;5.40;99.90
41668;DHT22;27356;50.920;5.350;2023-01-26T16:54:11;5.30;99.90
41668;DHT22;27356;50.920;5.350;2023-01-26T16:56:38;5.30;99.90
41668;DHT22;27356;50.920;5.350;2023-01-26T16:59:04;5.40;99.90
41668;DHT22;27356;50.920;5.350;2023-01-26T17:01:35;5.40;99.90
41668;DHT22;27356;50.920;5.350;2023-01-26T17:04:01;5.40;99.90
41668;DHT22;27356;50.920;5.350;2023-01-26T17:06:28;5.40;99.90
41668;DHT22;27356;50.920;5.350;2023-01-26T17:08:54;5.50;99.90
41668;DHT22;27356;50.920;5.350;2023-01-26T17:11:27;5.60;99.90
41668;DHT22;27356;50.920;5.350;2023-01-26T17:14:52;5.50;99.90
41668;DHT22;27356;50.920;5.350;2023-01-26T17:17:19;5.40;99.90
41668;DHT22;27356;50.920;5.350;2023-01-26T17:19:44;5.40;99.90
41668;DHT22;27356;50.920;5.350;2023-01-26T17:22:10;5.40;99.90
41668;DHT22;27356;50.920;5.350;2023-01-26T17:24:36;5.40;99.90
41668;DHT22;27356;50.920;5.350;2023-01-26T17:27:01;5.40;99.90
41668;DHT22;27356;50.920;5.350;2023-01-26T17:29:30;5.40;99.90
41668;DHT22;27356;50.920;5.350;2023-01-26T17:31:58;5.50;99.90
41668;DHT22;27356;50.920;5.350;2023-01-26T17:34:24;5.40;99.90
41668;DHT22;27356;50.920;5.350;2023-01-26T17:36:49;5.40;99.90
41668;DHT22;27356;50.920;5.350;2023-01-26T17:39:15;5.40;99.90
41668;DHT22;27356;50.920;5.350;2023-01-26T17:41:43;5.50;99.90
41668;DHT22;27356;50.920;5.350;2023-01-26T17:44:08;5.60;99.90
41668;DHT22;27356;50.920;5.350;2023-01-26T17:46:34;5.70;99.90
41668;DHT22;27356;50.920;5.350;2023-01-26T17:49:02;5.80;99.90
41668;DHT22;27356;50.920;5.350;2023-01-26T17:51:28;5.70;99.90